Time;durP1;ratioP1;P1;durP2;ratioP2;P2;SDS_P1;SDS_P2;PMS_P1;PMS_P2;Temp;Humidity;BMP_temperature;BMP_pressure;BME280_temperature;BME280_humidity;BME280_pressure;Samples;Min_cycle;Max_cycle;Signal;HPM_P1;HPM_P2
2021/11/20 00:01:34;;;;;;;5.45;2.90;;;;;;;2.74;100.00;96976.78;5020726;28;20134;-69
2021/11/20 00:04:00;;;;;;;3.28;1.80;;;;;;;2.79;100.00;96954.31;5029013;28;20037;-70
2021/11/20 00:06:30;;;;;;;5.07;2.65;;;;;;;2.77;100.00;96956.16;5030825;28;20072;-70
2021/11/20 00:08:57;;;;;;;2.20;1.45;;;;;;;2.72;100.00;96952.94;5036640;28;20493;-69
2021/11/20 00:11:27;;;;;;;5.65;2.50;;;;;;;2.76;100.00;96940.81;5047940;28;20041;-69
2021/11/20 00:13:52;;;;;;;;;;;;;;;2.75;100.00;96934.84;5030066;28;20135;-70
2021/11/20 00:16:21;;;;;;;5.90;2.38;;;;;;;2.73;100.00;96915.31;5030325;28;19944;-69
2021/11/20 00:18:50;;;;;;;7.35;2.20;;;;;;;2.72;100.00;96908.53;5030677;28;20045;-69
2021/11/20 00:21:21;;;;;;;3.42;2.22;;;;;;;2.71;100.00;96906.88;5043751;28;20041;-69
2021/11/20 00:23:51;;;;;;;6.28;2.40;;;;;;;2.69;100.00;96904.38;5026499;28;20041;-67
2021/11/20 00:26:22;;;;;;;5.63;3.20;;;;;;;2.70;100.00;96874.44;5031209;28;20135;-67
2021/11/20 00:31:38;;;;;;;5.72;2.70;;;;;;;2.73;100.00;96862.28;5018029;28;20041;-67
2021/11/20 00:34:04;;;;;;;;;;;;;;;2.76;100.00;96856.19;5030059;28;20145;-66
2021/11/20 00:36:29;;;;;;;4.90;2.50;;;;;;;2.82;100.00;96850.75;5020689;28;20375;-68
2021/11/20 00:38:55;;;;;;;3.97;2.10;;;;;;;2.84;100.00;96851.50;5051529;28;20045;-69
2021/11/20 00:41:26;;;;;;;3.08;1.63;;;;;;;2.76;100.00;96812.56;5038369;28;20045;-67
2021/11/20 00:43:53;;;;;;;8.05;2.30;;;;;;;2.77;100.00;96809.94;5028272;28;20056;-63
2021/11/20 00:46:22;;;;;;;3.63;2.38;;;;;;;2.65;100.00;96781.50;5044425;28;20045;-72
2021/11/20 00:48:49;;;;;;;6.53;1.83;;;;;;;2.79;100.00;96782.47;5025152;28;20531;-66
2021/11/20 00:51:21;;;;;;;3.47;2.20;;;;;;;2.77;100.00;96780.91;5021068;28;20474;-67
2021/11/20 00:53:47;;;;;;;5.22;2.05;;;;;;;2.71;100.00;96755.56;5024911;28;20525;-71
2021/11/20 00:56:15;;;;;;;2.75;1.30;;;;;;;2.69;100.00;96771.00;5040572;28;20091;-69
2021/11/20 00:58:42;;;;;;;3.53;2.15;;;;;;;2.68;100.00;96748.00;5040210;28;20052;-68
2021/11/20 01:01:11;;;;;;;4.35;2.30;;;;;;;2.67;100.00;96747.16;5036775;28;20119;-69
2021/11/20 01:03:38;;;;;;;3.50;2.00;;;;;;;2.64;100.00;96729.38;5039265;28;20587;-70
2021/11/20 01:06:07;;;;;;;3.70;2.17;;;;;;;2.69;100.00;96727.41;5029769;28;20049;-69
2021/11/20 01:08:36;;;;;;;2.63;1.52;;;;;;;2.62;100.00;96720.91;5028667;28;20053;-65
2021/11/20 01:11:25;;;;;;;2.83;1.58;;;;;;;2.47;100.00;96691.75;5021538;28;20038;-68
2021/11/20 01:13:53;;;;;;;2.60;1.50;;;;;;;2.53;100.00;96694.03;5051822;28;20048;-67
2021/11/20 01:16:21;;;;;;;3.95;2.20;;;;;;;2.47;100.00;96665.28;5028854;28;20501;-69
2021/11/20 01:18:47;;;;;;;3.92;2.22;;;;;;;2.63;100.00;96681.56;5020135;28;20184;-66
2021/11/20 01:21:36;;;;;;;5.20;1.98;;;;;;;2.68;100.00;96676.19;5026786;28;20124;-70
2021/11/20 01:24:07;;;;;;;2.65;1.50;;;;;;;2.59;100.00;96661.28;5025333;28;20514;-70
2021/11/20 01:26:33;;;;;;;2.67;1.70;;;;;;;2.50;100.00;96642.91;5012839;28;20058;-66
2021/11/20 01:29:00;;;;;;;3.83;1.80;;;;;;;2.41;100.00;96622.03;5003603;28;20571;-67
2021/11/20 01:31:33;;;;;;;3.72;2.03;;;;;;;2.44;100.00;96616.75;5012707;28;20046;-68
2021/11/20 01:34:00;;;;;;;2.67;1.80;;;;;;;2.41;100.00;96617.72;5026447;28;20052;-67
2021/11/20 01:36:28;;;;;;;2.53;1.42;;;;;;;2.38;100.00;96615.34;5039701;28;20433;-67
2021/11/20 01:38:58;;;;;;;4.05;1.15;;;;;;;2.36;100.00;96599.19;5027785;28;20042;-67
2021/11/20 01:41:32;;;;;;;3.38;1.45;;;;;;;2.30;100.00;96599.53;5043638;28;20041;-70
2021/11/20 01:44:21;;;;;;;4.90;2.38;;;;;;;2.35;100.00;96569.38;5020933;28;20097;-67
2021/11/20 01:46:53;;;;;;;2.50;1.73;;;;;;;2.37;100.00;96570.09;5033597;28;20146;-66
2021/11/20 01:49:31;;;;;;;3.13;1.83;;;;;;;2.34;100.00;96559.19;5032452;28;20138;-66
2021/11/20 01:52:12;;;;;;;3.67;2.10;;;;;;;2.32;100.00;96535.34;5037255;28;20516;-69
2021/11/20 01:55:07;;;;;;;3.60;1.98;;;;;;;2.31;100.00;96526.84;5026058;28;20072;-67
2021/11/20 01:58:20;;;;;;;3.92;1.80;;;;;;;2.30;100.00;96514.13;5025195;28;20045;-69
2021/11/20 02:00:59;;;;;;;2.88;1.63;;;;;;;2.29;100.00;96513.28;5037685;28;20065;-68
2021/11/20 02:03:30;;;;;;;4.03;1.60;;;;;;;2.25;100.00;96498.97;4987566;28;20530;-67
2021/11/20 02:06:11;;;;;;;2.95;1.65;;;;;;;2.38;100.00;96499.16;5035311;28;20051;-67
2021/11/20 02:09:06;;;;;;;4.28;1.77;;;;;;;2.36;100.00;96485.59;5001220;28;20049;-66
2021/11/20 02:11:52;;;;;;;3.30;1.63;;;;;;;2.40;100.00;96472.56;5016795;28;20044;-66
2021/11/20 02:14:19;;;;;;;2.72;1.63;;;;;;;2.43;100.00;96464.69;5031113;28;20040;-67
2021/11/20 02:16:46;;;;;;;5.55;1.35;;;;;;;2.46;100.00;96458.59;5035429;28;20041;-66
2021/11/20 02:19:17;;;;;;;2.25;1.33;;;;;;;2.46;100.00;96440.63;5040348;28;20478;-68
2021/11/20 02:21:49;;;;;;;1.92;1.23;;;;;;;2.48;100.00;96437.06;5050756;28;20548;-66
2021/11/20 02:24:15;;;;;;;2.00;1.00;;;;;;;2.52;100.00;96433.41;5045320;28;20045;-68
2021/11/20 02:27:07;;;;;;;2.72;1.50;;;;;;;2.58;100.00;96416.88;5019935;28;20131;-67
2021/11/20 02:29:46;;;;;;;2.05;1.23;;;;;;;2.61;100.00;96400.50;5041684;28;20516;-65
2021/11/20 02:32:23;;;;;;;2.92;1.10;;;;;;;2.46;100.00;96379.91;5046538;28;20048;-66
2021/11/20 02:34:56;;;;;;;3.25;1.58;;;;;;;2.60;100.00;96386.03;5037697;28;20400;-67
2021/11/20 02:37:27;;;;;;;2.42;1.40;;;;;;;2.65;100.00;96374.63;5016563;28;20042;-66
2021/11/20 02:39:53;;;;;;;2.92;1.48;;;;;;;2.55;100.00;96355.53;5023469;28;20050;-66
2021/11/20 02:42:21;;;;;;;2.38;1.27;;;;;;;2.64;100.00;96370.41;5040574;28;20635;-68
2021/11/20 02:45:21;;;;;;;2.67;1.50;;;;;;;2.56;100.00;96352.88;5032786;28;20049;-66
2021/11/20 02:47:48;;;;;;;2.30;1.40;;;;;;;2.56;100.00;96342.59;5023628;28;20045;-70
2021/11/20 02:50:14;;;;;;;1.77;0.93;;;;;;;2.54;100.00;96348.75;5040541;28;20417;-71
2021/11/20 02:52:40;;;;;;;2.78;1.33;;;;;;;2.45;100.00;96333.88;5018534;28;20418;-69
2021/11/20 02:55:08;;;;;;;2.38;1.52;;;;;;;2.39;100.00;96326.53;5044034;28;20046;-72
2021/11/20 02:57:36;;;;;;;2.97;1.08;;;;;;;2.43;100.00;96316.03;5026035;28;20073;-67
2021/11/20 03:00:08;;;;;;;2.08;1.02;;;;;;;2.33;100.00;96306.38;5032158;28;20046;-69
2021/11/20 03:02:39;;;;;;;3.42;1.33;;;;;;;2.21;100.00;96289.94;5012403;28;20505;-66
2021/11/20 03:05:06;;;;;;;8.80;1.13;;;;;;;2.14;100.00;96291.19;5031987;28;20600;-68
2021/11/20 03:07:31;;;;;;;1.95;1.23;;;;;;;2.03;100.00;96275.59;5025282;28;20041;-68
2021/11/20 03:09:57;;;;;;;1.92;1.15;;;;;;;2.01;100.00;96267.16;5039348;28;20041;-67
2021/11/20 03:12:25;;;;;;;3.10;1.20;;;;;;;1.99;100.00;96267.22;5021786;28;20045;-68
2021/11/20 03:14:56;;;;;;;2.50;1.33;;;;;;;1.88;100.00;96245.69;5025878;28;20117;-66
2021/11/20 03:17:29;;;;;;;1.70;1.10;;;;;;;1.91;100.00;96254.03;5000825;28;20033;-62
2021/11/20 03:19:58;;;;;;;2.70;1.60;;;;;;;1.92;100.00;96239.50;5035502;28;20045;-68
2021/11/20 03:22:41;;;;;;;2.97;1.70;;;;;;;1.93;100.00;96236.88;5029548;28;20505;-65
2021/11/20 03:25:07;;;;;;;2.67;1.42;;;;;;;1.85;100.00;96207.44;5025723;28;20092;-68
2021/11/20 03:27:35;;;;;;;2.30;1.30;;;;;;;1.97;100.00;96219.56;5034280;28;20072;-68
2021/11/20 03:30:04;;;;;;;2.60;1.20;;;;;;;1.96;100.00;96210.25;5017962;28;20046;-66
2021/11/20 03:32:30;;;;;;;2.17;1.30;;;;;;;1.98;100.00;96195.63;5021116;28;20509;-66
2021/11/20 03:34:56;;;;;;;3.38;1.50;;;;;;;2.01;100.00;96187.75;5022943;28;20050;-67
2021/11/20 03:37:23;;;;;;;2.10;1.20;;;;;;;2.01;100.00;96183.47;5022650;28;20045;-68
2021/11/20 03:39:50;;;;;;;5.93;1.60;;;;;;;1.99;100.00;96169.09;5028172;28;20033;-67
2021/11/20 03:42:18;;;;;;;1.90;1.35;;;;;;;2.00;100.00;96166.44;5032757;28;20037;-68
2021/11/20 03:44:44;;;;;;;2.35;1.48;;;;;;;2.03;100.00;96158.59;5009283;28;20119;-66
2021/11/20 03:47:10;;;;;;;2.33;1.30;;;;;;;2.03;100.00;96150.09;5022991;28;20045;-68
2021/11/20 03:49:40;;;;;;;3.08;1.58;;;;;;;2.02;100.00;96140.75;5020503;28;20406;-69
2021/11/20 03:52:06;;;;;;;2.42;1.40;;;;;;;2.03;100.00;96132.16;5029674;28;20043;-69
2021/11/20 03:54:32;;;;;;;3.38;1.58;;;;;;;2.04;100.00;96126.94;5029195;28;20132;-66
2021/11/20 03:56:59;;;;;;;2.03;1.27;;;;;;;1.95;100.00;96109.53;5029075;28;20114;-67
2021/11/20 03:59:26;;;;;;;2.65;1.50;;;;;;;2.06;100.00;96109.75;5031377;28;20041;-67
2021/11/20 04:01:52;;;;;;;1.92;1.42;;;;;;;2.00;100.00;96087.03;5029491;28;20507;-67
2021/11/20 04:04:21;;;;;;;2.08;1.25;;;;;;;2.13;100.00;96089.72;5029924;28;20037;-67
2021/11/20 04:06:47;;;;;;;1.90;1.17;;;;;;;2.17;100.00;96083.50;4996503;28;20045;-67
2021/11/20 04:09:14;;;;;;;2.35;1.40;;;;;;;2.18;100.00;96066.41;5029997;28;20049;-66
2021/11/20 04:11:44;;;;;;;;;;;;;;;2.20;100.00;96065.38;5019726;28;20417;-63
2021/11/20 04:14:11;;;;;;;2.13;1.35;;;;;;;2.04;100.00;96033.91;5063016;28;19917;-65
2021/11/20 04:16:40;;;;;;;1.53;1.10;;;;;;;2.25;100.00;96055.69;5015823;28;20034;-66
2021/11/20 04:19:06;;;;;;;2.63;0.90;;;;;;;2.29;100.00;96051.22;5035546;28;20049;-66
2021/11/20 04:21:33;;;;;;;1.17;0.70;;;;;;;2.29;100.00;96048.66;5022137;28;20037;-67
2021/11/20 04:24:00;;;;;;;1.48;0.90;;;;;;;2.34;100.00;96036.38;5048399;28;20048;-67
2021/11/20 04:26:46;;;;;;;3.38;1.20;;;;;;;2.31;100.00;96032.25;5035013;28;20131;-67
2021/11/20 04:29:13;;;;;;;1.77;1.00;;;;;;;2.30;100.00;96022.13;5044622;28;20048;-66
2021/11/20 04:31:39;;;;;;;2.40;1.50;;;;;;;2.38;100.00;96015.59;5034837;28;20052;-67
2021/11/20 04:34:05;;;;;;;2.10;1.05;;;;;;;2.39;100.00;96014.69;5033868;28;20044;-67
2021/11/20 04:36:32;;;;;;;2.10;1.30;;;;;;;2.42;100.00;96004.25;5035662;28;20081;-67
2021/11/20 04:38:58;;;;;;;3.78;1.40;;;;;;;2.42;100.00;95999.13;5029627;28;20041;-66
2021/11/20 04:41:26;;;;;;;3.13;1.40;;;;;;;2.37;100.00;95984.94;5029109;28;20052;-68
2021/11/20 04:43:53;;;;;;;3.13;1.17;;;;;;;2.47;100.00;95996.28;5022500;28;20493;-68
2021/11/20 04:46:21;;;;;;;2.15;1.35;;;;;;;2.58;100.00;95998.19;5024867;28;20041;-69
2021/11/20 04:48:48;;;;;;;2.00;1.35;;;;;;;2.62;100.00;95987.63;5035047;28;20060;-69
2021/11/20 04:51:14;;;;;;;4.30;1.60;;;;;;;2.67;100.00;95982.25;5041273;28;20515;-68
2021/11/20 04:53:44;;;;;;;3.25;1.38;;;;;;;2.64;100.00;95962.75;5042874;28;20037;-68
2021/11/20 04:56:12;;;;;;;3.38;1.40;;;;;;;2.72;100.00;95973.31;5029033;28;20053;-68
2021/11/20 04:58:39;;;;;;;4.63;1.50;;;;;;;2.68;100.00;95969.31;5030167;28;20128;-67
2021/11/20 05:01:07;;;;;;;2.90;1.75;;;;;;;2.70;100.00;95957.22;5034667;28;20045;-67
2021/11/20 05:03:38;;;;;;;3.55;1.60;;;;;;;2.75;100.00;95962.91;5037679;28;20049;-69
2021/11/20 05:06:04;;;;;;;3.72;1.67;;;;;;;2.74;100.00;95938.16;5014913;28;20051;-70
2021/11/20 05:08:30;;;;;;;4.40;1.92;;;;;;;2.69;100.00;95937.63;5022603;28;20038;-67
2021/11/20 05:11:07;;;;;;;2.53;1.50;;;;;;;2.75;100.00;95931.31;5033634;28;20112;-67
2021/11/20 05:13:47;;;;;;;4.63;1.80;;;;;;;2.76;100.00;95927.81;5040923;28;20048;-68
2021/11/20 05:16:14;;;;;;;3.20;2.10;;;;;;;2.71;100.00;95912.72;5046695;28;20815;-67
2021/11/20 05:18:42;;;;;;;3.88;2.05;;;;;;;2.87;100.00;95927.97;5045023;28;20045;-68
2021/11/20 05:21:13;;;;;;;9.45;1.92;;;;;;;2.77;100.00;95916.66;5026295;28;20034;-68
2021/11/20 05:23:42;;;;;;;7.63;2.40;;;;;;;2.66;100.00;95890.88;5029201;28;20037;-67
2021/11/20 05:26:11;;;;;;;5.05;1.73;;;;;;;2.77;100.00;95914.09;5000724;28;20041;-70
2021/11/20 05:28:39;;;;;;;4.07;2.30;;;;;;;2.64;100.00;95890.94;5016748;28;20041;-70
2021/11/20 05:31:06;;;;;;;5.32;2.20;;;;;;;2.83;100.00;95901.66;5011956;28;20535;-68
2021/11/20 05:33:39;;;;;;;4.57;1.75;;;;;;;2.94;100.00;95901.81;5031009;28;20045;-70
2021/11/20 05:36:09;;;;;;;2.13;1.13;;;;;;;2.82;100.00;95900.06;5027127;28;20042;-68
2021/11/20 05:38:35;;;;;;;2.88;1.70;;;;;;;2.69;100.00;95895.78;5034195;28;20080;-72
2021/11/20 05:41:02;;;;;;;2.90;1.83;;;;;;;2.55;100.00;95869.31;5022762;28;20061;-67
2021/11/20 05:43:40;;;;;;;3.40;1.48;;;;;;;2.65;100.00;95874.66;5018862;28;20045;-64
2021/11/20 05:46:17;;;;;;;2.78;1.88;;;;;;;2.76;100.00;95887.63;5038013;28;20057;-68
2021/11/20 05:48:43;;;;;;;3.47;2.10;;;;;;;2.83;100.00;95880.34;5032193;28;20041;-68
2021/11/20 05:51:08;;;;;;;6.30;2.33;;;;;;;2.76;100.00;95856.03;5039420;28;20045;-67
2021/11/20 05:53:34;;;;;;;4.10;2.13;;;;;;;2.86;100.00;95873.28;5015288;28;20577;-70
2021/11/20 05:56:01;;;;;;;4.30;2.38;;;;;;;2.91;100.00;95862.72;5040493;28;20061;-73
2021/11/20 05:58:37;;;;;;;5.90;2.15;;;;;;;2.95;100.00;95862.41;5038979;28;20045;-73
2021/11/20 06:01:08;;;;;;;5.18;2.13;;;;;;;2.93;100.00;95860.88;5048148;28;20627;-63
2021/11/20 06:03:34;;;;;;;4.55;2.20;;;;;;;2.99;100.00;95857.91;5042123;28;20048;-70
2021/11/20 06:06:01;;;;;;;7.18;2.53;;;;;;;2.96;100.00;95847.84;5016753;28;21737;-68
2021/11/20 06:08:27;;;;;;;4.00;2.20;;;;;;;2.94;100.00;95847.13;5014416;28;20449;-69
2021/11/20 06:10:57;;;;;;;3.15;2.00;;;;;;;2.92;100.00;95852.38;5031096;28;20095;-68
2021/11/20 06:13:24;;;;;;;6.15;2.45;;;;;;;2.91;100.00;95850.72;5030261;28;20033;-69
2021/11/20 06:16:02;;;;;;;6.15;2.42;;;;;;;2.93;100.00;95842.94;5016026;28;20037;-69
2021/11/20 06:18:29;;;;;;;5.95;2.40;;;;;;;3.01;100.00;95852.69;5025906;28;20045;-68
2021/11/20 06:20:56;;;;;;;4.13;2.10;;;;;;;2.99;100.00;95843.34;5012420;28;20057;-69
2021/11/20 06:23:24;;;;;;;3.88;2.20;;;;;;;3.01;100.00;95840.69;5031883;28;20586;-65
2021/11/20 06:25:54;;;;;;;7.45;2.50;;;;;;;2.94;100.00;95831.72;4995586;28;20045;-70
2021/11/20 06:28:20;;;;;;;3.95;2.40;;;;;;;3.06;100.00;95841.19;5014056;28;20029;-66
2021/11/20 06:30:46;;;;;;;6.63;2.15;;;;;;;3.05;100.00;95839.53;5030576;28;20052;-66
2021/11/20 06:33:12;;;;;;;6.90;2.65;;;;;;;3.07;100.00;95824.06;4998046;28;20037;-70
2021/11/20 06:35:51;;;;;;;6.43;2.22;;;;;;;3.16;100.00;95828.56;5031520;28;20041;-70
2021/11/20 06:38:23;;;;;;;5.47;2.28;;;;;;;3.17;100.00;95818.22;5029078;28;20111;-70
2021/11/20 06:40:51;;;;;;;4.82;2.75;;;;;;;3.25;100.00;95822.81;5013635;28;20171;-68
2021/11/20 06:43:22;;;;;;;5.97;2.72;;;;;;;3.24;100.00;95816.06;5030809;28;20047;-69
2021/11/20 06:45:51;;;;;;;4.90;2.67;;;;;;;3.30;100.00;95819.03;5014780;28;20424;-69
2021/11/20 06:48:19;;;;;;;7.40;2.90;;;;;;;3.35;100.00;95816.13;5061761;28;20049;-69
2021/11/20 06:50:58;;;;;;;5.18;2.45;;;;;;;3.42;100.00;95813.06;5014749;28;20282;-68
2021/11/20 06:53:43;;;;;;;5.35;2.38;;;;;;;3.47;100.00;95819.63;5030493;28;20525;-70
2021/11/20 06:56:30;;;;;;;6.43;2.50;;;;;;;3.25;100.00;95815.94;5030863;28;20049;-71
2021/11/20 07:00:25;;;;;;;9.43;2.97;;;;;;;3.08;100.00;95815.44;5031791;28;20041;-70
2021/11/20 07:02:41;;;;;;;5.40;2.90;;;;;;;3.04;100.00;95809.69;5019804;28;20041;-70
2021/11/20 07:05:08;;;;;;;6.50;2.67;;;;;;;2.99;100.00;95814.28;5029792;28;20123;-69
2021/11/20 07:07:34;;;;;;;5.47;3.00;;;;;;;3.02;100.00;95813.28;5014287;28;20179;-75
2021/11/20 07:10:03;;;;;;;5.88;3.30;;;;;;;2.97;100.00;95816.97;5031783;28;20045;-68
2021/11/20 07:12:29;;;;;;;9.20;3.90;;;;;;;2.80;100.00;95793.34;5032060;28;20045;-70
2021/11/20 07:14:55;;;;;;;10.27;3.85;;;;;;;2.87;100.00;95800.56;5031846;28;20414;-72
2021/11/20 07:17:21;;;;;;;8.73;3.53;;;;;;;3.02;100.00;95811.53;5030010;28;20104;-73
2021/11/20 07:20:08;;;;;;;6.22;3.25;;;;;;;3.04;100.00;95812.25;5028183;28;20513;-72
2021/11/20 07:22:57;;;;;;;6.18;2.47;;;;;;;3.12;100.00;95812.56;5009471;28;20056;-75
2021/11/20 07:25:25;;;;;;;6.47;3.15;;;;;;;3.11;100.00;95810.09;4997604;28;20115;-72
2021/11/20 07:27:53;;;;;;;9.90;4.38;;;;;;;3.08;100.00;95805.19;5030393;28;20041;-70
2021/11/20 07:30:21;;;;;;;4.95;3.17;;;;;;;3.27;100.00;95815.84;5044511;28;20172;-71
2021/11/20 07:32:49;;;;;;;7.40;3.50;;;;;;;3.30;100.00;95823.31;5029176;28;20190;-74
2021/11/20 07:35:36;;;;;;;6.80;3.90;;;;;;;3.35;100.00;95827.22;5063680;28;20119;-72
2021/11/20 07:38:05;;;;;;;10.02;4.50;;;;;;;3.23;100.00;95822.94;5028395;28;20268;-72
2021/11/20 07:40:34;;;;;;;10.90;4.77;;;;;;;3.40;100.00;95830.31;4997171;28;20087;-70
2021/11/20 07:43:00;;;;;;;7.72;4.18;;;;;;;3.43;100.00;95831.84;5042626;28;20045;-70
2021/11/20 07:45:45;;;;;;;9.13;4.47;;;;;;;3.52;100.00;95838.09;5031565;28;20049;-70
2021/11/20 07:48:19;;;;;;;7.93;4.38;;;;;;;3.53;100.00;95837.19;4996473;28;20472;-69
2021/11/20 07:50:47;;;;;;;10.77;3.63;;;;;;;3.61;100.00;95834.94;5028308;28;20041;-71
2021/11/20 07:53:31;;;;;;;7.95;4.07;;;;;;;3.68;100.00;95842.09;5015603;28;20513;-70
2021/11/20 07:55:58;;;;;;;6.75;4.20;;;;;;;3.66;100.00;95832.88;5012630;28;20136;-69
2021/11/20 07:58:24;;;;;;;6.38;3.10;;;;;;;3.69;100.00;95838.63;5029820;28;20128;-67
2021/11/20 08:00:51;;;;;;;8.95;3.92;;;;;;;3.71;100.00;95843.66;5013234;28;20575;-68
2021/11/20 08:03:17;;;;;;;6.20;3.60;;;;;;;3.74;100.00;95846.00;5028417;28;20037;-67
2021/11/20 08:05:49;;;;;;;7.70;3.30;;;;;;;3.78;100.00;95845.69;5029827;28;20133;-67
2021/11/20 08:08:33;;;;;;;5.35;3.20;;;;;;;3.86;100.00;95845.16;5030034;28;20049;-70
2021/11/20 08:11:13;;;;;;;6.22;3.10;;;;;;;3.77;100.00;95849.16;5011026;28;20057;-67
2021/11/20 08:13:39;;;;;;;6.10;3.40;;;;;;;3.78;100.00;95855.13;5013217;28;20037;-69
2021/11/20 08:16:44;;;;;;;5.90;3.03;;;;;;;3.74;100.00;95844.25;5022776;28;20091;-67
2021/11/20 08:19:17;;;;;;;4.88;2.80;;;;;;;3.87;100.00;95859.66;5030821;28;20124;-69
2021/11/20 08:22:06;;;;;;;6.03;2.78;;;;;;;3.92;100.00;95856.75;5029555;28;20049;-68
2021/11/20 08:24:36;;;;;;;7.82;3.30;;;;;;;3.86;100.00;95849.47;5029039;28;20509;-71
2021/11/20 08:27:07;;;;;;;5.78;3.30;;;;;;;4.03;100.00;95872.25;5029614;28;20063;-70
2021/11/20 08:29:38;;;;;;;5.07;2.92;;;;;;;4.03;100.00;95862.00;5044813;28;20045;-71
2021/11/20 08:32:06;;;;;;;3.60;2.30;;;;;;;3.98;100.00;95875.13;5030279;28;20037;-72
2021/11/20 08:34:45;;;;;;;5.93;2.40;;;;;;;3.97;100.00;95876.06;5012161;28;20099;-71
2021/11/20 08:37:34;;;;;;;4.18;2.90;;;;;;;3.98;100.00;95882.03;5024631;28;20052;-72
2021/11/20 08:40:14;;;;;;;;;;;;;;;4.00;100.00;95888.69;5034289;28;20091;-70
2021/11/20 08:42:41;;;;;;;3.35;2.15;;;;;;;3.98;100.00;95895.69;5036516;28;19917;-65
2021/11/20 08:45:12;;;;;;;3.65;2.03;;;;;;;3.95;100.00;95887.38;5037354;28;20043;-64
2021/11/20 08:47:46;;;;;;;4.00;2.78;;;;;;;3.91;100.00;95902.19;5036174;28;20524;-63
2021/11/20 08:50:16;;;;;;;5.45;2.15;;;;;;;3.91;100.00;95901.34;5020337;28;20045;-66
2021/11/20 08:52:42;;;;;;;7.40;3.65;;;;;;;3.90;100.00;95897.97;5042062;28;20536;-72
2021/11/20 08:55:11;;;;;;;5.88;2.65;;;;;;;3.94;100.00;95907.09;5060107;28;20049;-65
2021/11/20 08:57:38;;;;;;;3.85;2.70;;;;;;;3.95;100.00;95897.66;5017745;28;20513;-62
2021/11/20 09:00:30;;;;;;;6.13;2.33;;;;;;;3.92;100.00;95893.56;5029079;28;20132;-65
2021/11/20 09:03:39;;;;;;;6.13;3.10;;;;;;;4.01;100.00;95912.66;5010131;28;20045;-65
2021/11/20 09:06:14;;;;;;;4.07;2.60;;;;;;;4.00;100.00;95921.28;5042166;28;20073;-68
2021/11/20 09:08:49;;;;;;;4.28;2.35;;;;;;;4.02;100.00;95925.41;5028230;28;20041;-61
2021/11/20 09:11:19;;;;;;;8.38;4.10;;;;;;;4.03;100.00;95919.31;5000918;28;20627;-67
2021/11/20 09:13:52;;;;;;;4.30;2.78;;;;;;;3.97;100.00;95930.03;5013215;28;20049;-64
2021/11/20 09:16:22;;;;;;;4.80;2.80;;;;;;;3.87;100.00;95908.47;4995239;28;20072;-65
2021/11/20 09:18:48;;;;;;;4.45;2.78;;;;;;;4.00;100.00;95944.41;5026511;28;20184;-65
2021/11/20 09:21:15;;;;;;;3.75;2.05;;;;;;;4.03;100.00;95944.22;4994119;28;20041;-67
2021/11/20 09:23:57;;;;;;;5.13;2.35;;;;;;;4.05;100.00;95957.75;5009042;28;20541;-67
2021/11/20 09:26:28;;;;;;;3.25;2.22;;;;;;;4.02;100.00;95961.38;5009062;28;20042;-66
2021/11/20 09:28:59;;;;;;;2.83;2.03;;;;;;;4.03;100.00;95969.91;5024733;28;20406;-70
2021/11/20 09:31:27;;;;;;;4.63;2.08;;;;;;;3.99;100.00;95971.00;5028991;28;20037;-72
2021/11/20 09:33:56;;;;;;;3.25;2.22;;;;;;;4.03;100.00;95970.69;5028039;28;20045;-71
2021/11/20 09:36:23;;;;;;;4.15;2.15;;;;;;;4.03;100.00;95972.47;5028733;28;20045;-73
2021/11/20 09:39:07;;;;;;;5.60;2.42;;;;;;;3.99;100.00;95984.69;5060134;28;20045;-71
2021/11/20 09:41:43;;;;;;;;;;;;;;;4.00;100.00;95988.91;5008686;28;20553;-72
2021/11/20 09:44:10;;;;;;;6.15;1.73;;;;;;;3.90;100.00;95987.06;5005989;28;19921;-69
2021/11/20 09:46:44;;;;;;;5.65;1.70;;;;;;;3.93;100.00;95997.94;5026556;28;20061;-69
2021/11/20 09:49:17;;;;;;;3.92;1.90;;;;;;;3.91;100.00;96014.41;4995757;28;20045;-67
2021/11/20 09:51:49;;;;;;;4.18;2.47;;;;;;;3.93;100.00;96017.66;5012146;28;20052;-64
2021/11/20 09:54:19;;;;;;;4.00;1.95;;;;;;;3.99;100.00;96030.09;5029468;28;20041;-66
2021/11/20 09:56:45;;;;;;;3.38;1.90;;;;;;;3.99;100.00;96025.78;4994946;28;20065;-65
2021/11/20 09:59:51;;;;;;;3.38;1.60;;;;;;;4.00;100.00;96030.00;5010109;28;20046;-67
2021/11/20 10:02:23;;;;;;;7.90;2.00;;;;;;;4.00;100.00;96036.91;5009725;28;20140;-66
2021/11/20 10:04:52;;;;;;;3.25;1.58;;;;;;;4.02;100.00;96042.78;5010066;28;20065;-66
2021/11/20 10:07:34;;;;;;;2.72;1.75;;;;;;;3.98;100.00;96054.19;5009876;28;20413;-67
2021/11/20 10:10:15;;;;;;;2.95;1.60;;;;;;;3.97;100.00;96062.81;5014636;28;20797;-64
2021/11/20 10:13:02;;;;;;;3.00;1.30;;;;;;;3.98;100.00;96075.53;5028650;28;20045;-65
2021/11/20 10:15:50;;;;;;;3.45;1.40;;;;;;;3.97;100.00;96065.38;5026610;28;20076;-66
2021/11/20 10:18:21;;;;;;;5.00;2.05;;;;;;;4.00;100.00;96072.88;5009213;28;20119;-68
2021/11/20 10:21:16;;;;;;;1.48;1.10;;;;;;;3.98;100.00;96079.88;4997197;28;20041;-66
2021/11/20 10:23:45;;;;;;;1.92;1.10;;;;;;;3.98;100.00;96092.72;5009143;28;20050;-67
2021/11/20 10:26:19;;;;;;;1.83;1.00;;;;;;;3.95;100.00;96096.31;5035005;28;20033;-69
2021/11/20 10:29:08;;;;;;;2.88;1.10;;;;;;;3.91;100.00;96109.44;5029755;28;20615;-67
2021/11/20 10:31:37;;;;;;;2.22;1.17;;;;;;;3.93;100.00;96108.41;5028733;28;20142;-67
2021/11/20 10:34:06;;;;;;;5.03;1.50;;;;;;;3.92;100.00;96111.09;5013191;28;20104;-65
2021/11/20 10:36:52;;;;;;;1.75;1.13;;;;;;;3.96;100.00;96126.22;5012862;28;20048;-66
2021/11/20 10:39:28;;;;;;;5.38;1.90;;;;;;;3.91;100.00;96133.41;5031209;28;20508;-66
2021/11/20 10:41:55;;;;;;;3.42;1.30;;;;;;;3.95;100.00;96137.41;5014730;28;20056;-66
2021/11/20 10:44:29;;;;;;;1.67;1.00;;;;;;;3.87;100.00;96146.53;5012757;28;20125;-66
2021/11/20 10:47:06;;;;;;;1.42;1.08;;;;;;;3.85;100.00;96144.06;5027702;28;20075;-65
2021/11/20 10:50:03;;;;;;;1.77;1.25;;;;;;;3.85;100.00;96156.91;5031180;28;20052;-66
2021/11/20 10:53:00;;;;;;;2.25;1.20;;;;;;;3.90;100.00;96166.88;5031028;28;20041;-65
2021/11/20 10:56:03;;;;;;;1.88;0.90;;;;;;;3.86;100.00;96168.84;5031541;28;20061;-65
2021/11/20 10:58:41;;;;;;;1.73;1.10;;;;;;;3.88;100.00;96181.56;5028067;28;20512;-67
2021/11/20 11:01:34;;;;;;;1.50;0.70;;;;;;;3.90;100.00;96190.00;5012497;28;20053;-65
2021/11/20 11:04:20;;;;;;;3.35;0.90;;;;;;;3.95;100.00;96198.25;5012748;28;20076;-66
2021/11/20 11:07:05;;;;;;;2.17;0.90;;;;;;;4.02;100.00;96195.19;5029292;28;20037;-68
2021/11/20 11:09:43;;;;;;;3.13;0.90;;;;;;;4.05;100.00;96207.00;5008961;28;20048;-65
2021/11/20 11:12:27;;;;;;;2.05;0.73;;;;;;;4.02;100.00;96209.78;5027686;28;20536;-66
2021/11/20 11:15:08;;;;;;;3.17;1.20;;;;;;;4.04;100.00;96223.34;5012569;28;20042;-64
2021/11/20 11:17:52;;;;;;;1.25;0.70;;;;;;;4.02;100.00;96232.91;5022898;28;20061;-67
2021/11/20 11:20:27;;;;;;;2.70;1.25;;;;;;;3.96;100.00;96234.13;5031938;28;20120;-66
2021/11/20 11:22:57;;;;;;;2.03;1.20;;;;;;;3.93;100.00;96244.59;5032158;28;20119;-66
2021/11/20 11:25:29;;;;;;;2.38;1.23;;;;;;;3.91;100.00;96251.59;5030515;28;20037;-66
2021/11/20 11:28:13;;;;;;;4.68;1.40;;;;;;;3.91;100.00;96256.72;5030957;28;20041;-65
2021/11/20 11:30:54;;;;;;;2.05;0.90;;;;;;;3.89;100.00;96265.44;5029233;28;20092;-66
2021/11/20 11:33:20;;;;;;;3.65;1.20;;;;;;;3.71;100.00;96246.88;5011950;28;20530;-65
2021/11/20 11:35:48;;;;;;;1.88;1.10;;;;;;;3.84;100.00;96270.84;5027389;28;20042;-66
2021/11/20 11:38:23;;;;;;;2.15;1.25;;;;;;;3.83;100.00;96288.00;5010419;28;20502;-66
2021/11/20 11:41:05;;;;;;;4.20;1.20;;;;;;;3.86;100.00;96297.28;5027115;28;20045;-66
2021/11/20 11:43:49;;;;;;;1.55;0.85;;;;;;;3.75;100.00;96294.56;5016197;28;20049;-64
2021/11/20 11:46:29;;;;;;;1.20;0.70;;;;;;;3.79;100.00;96314.81;5010765;28;20044;-66
2021/11/20 11:49:13;;;;;;;4.50;1.20;;;;;;;3.73;100.00;96334.91;5026984;28;20535;-64
2021/11/20 11:51:57;;;;;;;2.95;0.90;;;;;;;3.64;100.00;96333.72;5011945;28;20618;-65
2021/11/20 11:54:34;;;;;;;1.40;0.80;;;;;;;3.63;100.00;96344.91;5011730;28;20046;-65
2021/11/20 11:57:12;;;;;;;2.38;0.82;;;;;;;3.67;100.00;96343.81;5010443;28;20065;-67
2021/11/20 12:00:17;;;;;;;3.13;0.70;;;;;;;3.70;100.00;96358.22;5011646;28;20042;-66
2021/11/20 12:02:47;;;;;;;3.55;0.82;;;;;;;3.57;100.00;96347.84;5011454;28;20525;-67
2021/11/20 12:05:28;;;;;;;1.60;0.80;;;;;;;3.68;100.00;96371.16;5010464;28;20049;-66